Time;durP1;ratioP1;P1;durP2;ratioP2;P2;SDS_P1;SDS_P2;PMS_P1;PMS_P2;Temp;Humidity;BMP_temperature;BMP_pressure;BME280_temperature;BME280_humidity;BME280_pressure;Samples;Min_cycle;Max_cycle;Signal;HPM_P1;HPM_P2
2023/10/27 00:00:36;;;;;;;17.77;4.90;;;15.50;99.70;;;;;;5091722;28;20476;-59
2023/10/27 00:03:02;;;;;;;19.60;5.65;;;15.50;99.60;;;;;;5109787;28;20028;-59
2023/10/27 00:05:27;;;;;;;18.67;4.88;;;15.50;99.70;;;;;;5074822;28;20078;-59
2023/10/27 00:07:53;;;;;;;25.45;5.85;;;15.50;99.70;;;;;;5109513;28;20092;-59
2023/10/27 00:10:18;;;;;;;25.02;5.07;;;15.50;99.70;;;;;;5091589;28;20028;-59
2023/10/27 00:12:44;;;;;;;18.23;4.85;;;15.50;99.70;;;;;;5091530;28;20069;-59
2023/10/27 00:15:10;;;;;;;15.57;5.03;;;15.50;99.70;;;;;;5074717;28;20396;-59
2023/10/27 00:17:35;;;;;;;28.00;4.85;;;15.40;99.70;;;;;;5074294;28;20031;-59
2023/10/27 00:20:05;;;;;;;17.35;5.22;;;15.40;99.70;;;;;;5074758;28;20033;-59
2023/10/27 00:22:32;;;;;;;16.40;4.53;;;15.40;99.80;;;;;;5091774;28;20062;-59
2023/10/27 00:24:58;;;;;;;21.52;4.75;;;15.40;99.90;;;;;;5075198;28;20060;-59
2023/10/27 00:27:24;;;;;;;16.13;4.47;;;15.30;99.80;;;;;;5074274;28;20035;-58
2023/10/27 00:29:49;;;;;;;24.75;5.57;;;15.30;99.80;;;;;;5109200;28;20058;-59
2023/10/27 00:32:15;;;;;;;12.82;3.95;;;15.30;99.90;;;;;;5074385;28;20024;-59
2023/10/27 00:34:40;;;;;;;18.88;4.38;;;15.30;99.90;;;;;;5109387;28;20025;-59
2023/10/27 00:37:06;;;;;;;16.77;4.38;;;15.30;99.90;;;;;;5109142;28;20051;-59
2023/10/27 00:39:32;;;;;;;14.68;4.13;;;15.20;99.90;;;;;;5090858;28;20020;-58
2023/10/27 00:41:57;;;;;;;14.70;4.40;;;15.20;99.90;;;;;;5091012;28;20036;-59
2023/10/27 00:44:23;;;;;;;13.77;4.28;;;15.40;99.90;;;;;;5090977;28;20079;-60
2023/10/27 00:46:49;;;;;;;17.83;4.55;;;15.20;99.90;;;;;;5074183;28;20059;-59
2023/10/27 00:49:15;;;;;;;19.58;4.38;;;15.20;99.90;;;;;;5074204;28;20032;-60
2023/10/27 00:51:41;;;;;;;11.98;4.00;;;15.20;99.90;;;;;;5109248;28;20115;-59
2023/10/27 00:54:08;;;;;;;14.85;3.75;;;15.20;99.90;;;;;;5074236;28;20045;-59
2023/10/27 00:56:35;;;;;;;15.50;4.32;;;15.20;99.90;;;;;;5074610;28;20020;-59
2023/10/27 00:59:01;;;;;;;12.73;4.00;;;15.10;99.90;;;;;;5074020;28;20046;-59
2023/10/27 01:01:27;;;;;;;9.93;3.50;;;15.10;99.90;;;;;;5074016;28;20036;-59
2023/10/27 01:03:52;;;;;;;13.85;3.90;;;15.10;99.90;;;;;;5074069;28;20103;-58
2023/10/27 01:06:18;;;;;;;11.90;3.58;;;15.10;99.90;;;;;;5056942;28;20094;-59
2023/10/27 01:08:43;;;;;;;14.77;3.42;;;15.20;99.90;;;;;;5073701;28;20043;-59
2023/10/27 01:11:09;;;;;;;12.25;4.13;;;15.10;99.90;;;;;;5073969;28;20040;-59
2023/10/27 01:13:35;;;;;;;8.07;3.42;;;15.10;99.90;;;;;;5073946;28;20035;-58
2023/10/27 01:16:00;;;;;;;13.55;3.22;;;15.10;99.90;;;;;;5073813;28;20487;-59
2023/10/27 01:18:26;;;;;;;12.13;3.45;;;15.10;99.90;;;;;;5108955;28;20016;-59
2023/10/27 01:20:51;;;;;;;8.38;3.15;;;15.00;99.90;;;;;;5090712;28;20031;-59
2023/10/27 01:23:17;;;;;;;11.75;3.10;;;15.00;99.90;;;;;;5090894;28;20069;-59
2023/10/27 01:25:42;;;;;;;14.05;2.85;;;15.00;99.90;;;;;;5090559;28;20050;-59
2023/10/27 01:28:09;;;;;;;8.90;3.03;;;15.00;99.90;;;;;;5108271;28;20046;-59
2023/10/27 01:30:35;;;;;;;9.13;3.00;;;14.90;99.90;;;;;;5108251;28;20027;-59
2023/10/27 01:33:01;;;;;;;14.75;2.67;;;15.00;99.90;;;;;;5090386;28;20048;-59
2023/10/27 01:35:26;;;;;;;11.68;2.88;;;14.90;99.90;;;;;;5108181;28;20031;-59
2023/10/27 01:37:52;;;;;;;11.68;3.22;;;14.90;99.90;;;;;;5073358;28;20024;-59
2023/10/27 01:40:18;;;;;;;11.95;2.95;;;14.90;99.90;;;;;;5073396;28;20434;-59
2023/10/27 01:42:43;;;;;;;9.48;2.50;;;14.90;99.90;;;;;;5056261;28;20028;-59
2023/10/27 01:45:09;;;;;;;11.75;3.10;;;14.90;99.90;;;;;;5089875;28;20046;-59
2023/10/27 01:47:34;;;;;;;9.23;2.53;;;14.90;99.90;;;;;;5107815;28;20027;-58
2023/10/27 01:50:00;;;;;;;9.55;2.75;;;14.90;99.90;;;;;;5107593;28;20028;-59
2023/10/27 01:52:26;;;;;;;9.32;2.88;;;14.90;99.90;;;;;;5089419;28;20016;-59
2023/10/27 01:54:53;;;;;;;9.15;2.75;;;14.90;99.90;;;;;;5089922;28;20035;-59
2023/10/27 01:57:20;;;;;;;8.45;2.63;;;14.90;99.90;;;;;;5091102;28;20020;-59
2023/10/27 01:59:46;;;;;;;8.00;2.72;;;15.00;99.90;;;;;;5073325;28;20059;-59
2023/10/27 02:02:13;;;;;;;11.48;2.55;;;14.90;99.90;;;;;;5108540;28;20024;-58
2023/10/27 02:04:39;;;;;;;7.28;2.45;;;14.90;99.90;;;;;;5089807;28;20031;-59
2023/10/27 02:07:05;;;;;;;7.07;2.13;;;14.90;99.90;;;;;;5090910;28;20052;-59
2023/10/27 02:09:30;;;;;;;9.30;2.47;;;14.80;99.90;;;;;;5090255;28;20114;-59
2023/10/27 02:11:56;;;;;;;5.60;2.00;;;14.80;99.90;;;;;;5108757;28;20061;-59
2023/10/27 02:14:21;;;;;;;7.97;2.30;;;14.80;99.90;;;;;;5073323;28;20039;-58
2023/10/27 02:16:47;;;;;;;5.15;1.88;;;14.80;99.90;;;;;;5072780;28;20036;-59
2023/10/27 02:19:13;;;;;;;6.13;2.20;;;14.80;99.90;;;;;;5088916;28;20031;-59
2023/10/27 02:21:39;;;;;;;5.60;2.28;;;14.80;99.90;;;;;;5107329;28;20028;-59
2023/10/27 02:24:05;;;;;;;8.70;2.30;;;14.80;99.90;;;;;;5107141;28;20035;-59
2023/10/27 02:26:30;;;;;;;4.28;1.90;;;14.80;99.90;;;;;;5107175;28;20396;-59
2023/10/27 02:28:56;;;;;;;7.90;2.03;;;14.80;99.90;;;;;;5089179;28;20043;-59
2023/10/27 02:31:22;;;;;;;6.93;1.92;;;14.80;99.90;;;;;;5107151;28;20024;-59
2023/10/27 02:33:47;;;;;;;4.93;2.15;;;14.80;99.90;;;;;;5106901;28;20080;-59
2023/10/27 02:36:13;;;;;;;6.65;2.25;;;14.70;99.90;;;;;;5072026;28;20028;-59
2023/10/27 02:38:38;;;;;;;6.15;2.00;;;14.70;99.90;;;;;;5106760;28;20035;-59
2023/10/27 02:41:10;;;;;;;8.38;2.25;;;14.70;99.90;;;;;;5106991;28;20032;-59
2023/10/27 02:43:37;;;;;;;6.28;1.80;;;14.70;99.90;;;;;;5088733;28;20028;-59
2023/10/27 02:46:04;;;;;;;5.82;1.83;;;14.70;99.90;;;;;;5089022;28;20066;-59
2023/10/27 02:48:29;;;;;;;6.60;2.05;;;14.70;99.90;;;;;;5055352;28;20123;-59
2023/10/27 02:50:55;;;;;;;4.28;1.75;;;14.70;99.90;;;;;;5106705;28;20047;-59
2023/10/27 02:53:20;;;;;;;3.65;1.90;;;14.70;99.90;;;;;;5088394;28;20031;-58
2023/10/27 02:55:46;;;;;;;4.15;1.85;;;14.70;99.90;;;;;;5106696;28;20111;-58
2023/10/27 02:58:12;;;;;;;3.92;2.00;;;14.70;99.90;;;;;;5106624;28;20035;-59
2023/10/27 03:00:44;;;;;;;3.33;1.48;;;14.60;99.90;;;;;;5071969;28;20163;-59
2023/10/27 03:03:09;;;;;;;3.88;1.60;;;14.60;99.90;;;;;;5071738;28;20032;-59
2023/10/27 03:05:35;;;;;;;4.10;1.77;;;14.70;99.90;;;;;;5088547;28;20024;-59
2023/10/27 03:08:01;;;;;;;7.60;1.80;;;14.60;99.90;;;;;;5071944;28;20036;-58
2023/10/27 03:10:26;;;;;;;5.57;1.65;;;14.60;99.90;;;;;;5071492;28;20036;-59
2023/10/27 03:12:52;;;;;;;3.97;1.58;;;14.60;99.90;;;;;;5088619;28;20048;-59
2023/10/27 03:15:18;;;;;;;3.55;1.48;;;14.70;99.90;;;;;;5088438;28;20460;-59
2023/10/27 03:17:43;;;;;;;4.68;1.40;;;14.70;99.90;;;;;;5106501;28;20408;-59
2023/10/27 03:20:09;;;;;;;6.15;1.85;;;14.60;99.90;;;;;;5106321;28;20422;-58
2023/10/27 03:22:35;;;;;;;5.35;1.83;;;14.60;99.90;;;;;;5087994;28;20128;-58
2023/10/27 03:25:01;;;;;;;3.80;1.80;;;14.60;99.90;;;;;;5106344;28;20036;-58
2023/10/27 03:27:26;;;;;;;3.47;1.55;;;14.60;99.90;;;;;;5088338;28;20024;-59
2023/10/27 03:29:52;;;;;;;6.63;1.70;;;14.50;99.90;;;;;;5090707;28;20036;-59
2023/10/27 03:32:18;;;;;;;4.40;1.50;;;14.50;99.90;;;;;;5110366;28;20032;-59
2023/10/27 03:34:45;;;;;;;4.20;1.52;;;14.50;99.90;;;;;;5092182;28;20071;-59
2023/10/27 03:37:14;;;;;;;7.63;2.03;;;14.50;99.90;;;;;;5092412;28;20081;-59
2023/10/27 03:39:42;;;;;;;4.05;1.67;;;14.50;99.90;;;;;;5091969;28;20051;-59
2023/10/27 03:42:08;;;;;;;6.85;1.40;;;14.50;99.90;;;;;;5092593;28;20058;-59
2023/10/27 03:44:34;;;;;;;2.33;1.38;;;14.50;99.90;;;;;;5092207;28;20393;-58
2023/10/27 03:47:00;;;;;;;2.75;1.40;;;14.50;99.90;;;;;;5091985;28;20115;-59
2023/10/27 03:49:27;;;;;;;3.30;1.48;;;14.50;99.90;;;;;;5091793;28;20020;-59
2023/10/27 03:51:52;;;;;;;3.45;1.33;;;14.50;99.90;;;;;;5092161;28;20050;-58
2023/10/27 03:54:19;;;;;;;3.33;1.50;;;14.50;99.90;;;;;;5109925;28;20028;-59
2023/10/27 03:56:44;;;;;;;3.03;1.20;;;14.50;99.90;;;;;;5091841;28;20028;-59
2023/10/27 03:59:10;;;;;;;4.85;1.80;;;14.50;99.90;;;;;;5110119;28;20033;-59
2023/10/27 04:01:37;;;;;;;6.90;1.55;;;14.50;99.90;;;;;;5091984;28;20058;-59
2023/10/27 04:04:03;;;;;;;5.07;1.35;;;14.50;99.90;;;;;;5091770;28;20024;-59
2023/10/27 04:06:29;;;;;;;4.25;1.20;;;14.50;99.90;;;;;;5091781;28;20077;-59
2023/10/27 04:08:54;;;;;;;2.53;1.45;;;14.50;99.90;;;;;;5109668;28;20031;-59
2023/10/27 04:11:20;;;;;;;3.03;1.13;;;14.50;99.90;;;;;;5091525;28;20391;-59
2023/10/27 04:13:45;;;;;;;3.17;1.60;;;14.50;99.90;;;;;;5091528;28;20021;-59
2023/10/27 04:16:12;;;;;;;4.05;1.20;;;14.50;99.90;;;;;;5091594;28;20103;-59
2023/10/27 04:18:38;;;;;;;1.83;1.00;;;14.50;99.90;;;;;;5074929;28;20012;-59
2023/10/27 04:21:04;;;;;;;3.05;1.35;;;14.50;99.90;;;;;;5074348;28;20035;-59
2023/10/27 04:23:30;;;;;;;2.95;1.08;;;14.50;99.90;;;;;;5073564;28;20080;-59
2023/10/27 04:25:55;;;;;;;3.33;1.20;;;14.40;99.90;;;;;;5090075;28;20077;-59
2023/10/27 04:28:21;;;;;;;4.97;1.63;;;14.40;99.90;;;;;;5089968;28;20028;-58
2023/10/27 04:30:46;;;;;;;11.85;2.03;;;14.40;99.90;;;;;;5056963;28;20086;-59
2023/10/27 04:33:12;;;;;;;19.60;2.75;;;14.40;99.90;;;;;;5088024;28;20485;-59
2023/10/27 04:35:37;;;;;;;18.60;3.33;;;14.50;99.90;;;;;;5069718;28;20028;-58
2023/10/27 04:38:03;;;;;;;28.05;4.28;;;14.50;99.90;;;;;;5069825;28;20017;-58
2023/10/27 04:40:30;;;;;;;97.13;9.65;;;14.40;99.90;;;;;;5069431;28;20391;-58
2023/10/27 04:43:00;;;;;;;83.57;9.55;;;14.40;99.90;;;;;;5069869;28;20032;-59
2023/10/27 04:45:26;;;;;;;35.53;5.78;;;14.50;99.90;;;;;;5053421;28;20052;-58
2023/10/27 04:47:52;;;;;;;32.08;4.47;;;14.40;99.90;;;;;;5087624;28;20033;-59
2023/10/27 04:50:18;;;;;;;24.60;5.05;;;14.40;99.90;;;;;;5069782;28;20028;-59
2023/10/27 04:52:45;;;;;;;26.33;4.05;;;14.40;99.90;;;;;;5069532;28;20031;-58
2023/10/27 04:55:10;;;;;;;31.85;5.00;;;14.40;99.90;;;;;;5069583;28;20029;-58
2023/10/27 04:57:36;;;;;;;19.35;4.05;;;14.40;99.90;;;;;;5069522;28;20078;-58
2023/10/27 05:00:04;;;;;;;34.65;5.07;;;14.40;99.90;;;;;;5087311;28;20033;-58
2023/10/27 05:02:30;;;;;;;44.22;5.95;;;14.40;99.90;;;;;;5069527;28;20039;-58
2023/10/27 05:04:55;;;;;;;44.05;5.88;;;14.40;99.90;;;;;;5087305;28;20021;-58
2023/10/27 05:07:21;;;;;;;30.92;5.20;;;14.40;99.90;;;;;;5069344;28;20083;-58
2023/10/27 05:09:47;;;;;;;32.47;5.35;;;14.40;99.90;;;;;;5052495;28;20033;-58
2023/10/27 05:12:13;;;;;;;39.38;5.65;;;14.40;99.90;;;;;;5087328;28;20027;-58
2023/10/27 05:14:39;;;;;;;29.50;4.80;;;14.40;99.90;;;;;;5069346;28;20084;-58
2023/10/27 05:17:04;;;;;;;28.15;4.72;;;14.40;99.90;;;;;;5069119;28;20113;-58
2023/10/27 05:19:30;;;;;;;26.88;4.90;;;14.40;99.90;;;;;;5087131;28;20025;-59
2023/10/27 05:21:56;;;;;;;28.52;4.53;;;14.40;99.90;;;;;;5010851;28;1200616;-58
2023/10/27 05:24:22;;;;;;;27.67;4.70;;;14.40;99.90;;;;;;5069405;28;20039;-58
2023/10/27 05:26:47;;;;;;;22.25;3.83;;;14.40;99.90;;;;;;5087993;28;20484;-58
2023/10/27 05:29:13;;;;;;;22.15;3.95;;;14.50;99.90;;;;;;5087666;28;20108;-58
2023/10/27 05:31:40;;;;;;;11.15;3.10;;;14.40;99.90;;;;;;5087916;28;20020;-58
2023/10/27 05:34:05;;;;;;;22.75;4.10;;;14.40;99.90;;;;;;5069990;28;20024;-58
2023/10/27 05:36:31;;;;;;;21.40;3.42;;;14.40;99.90;;;;;;5069756;28;20036;-59
2023/10/27 05:38:56;;;;;;;27.83;3.70;;;14.40;99.90;;;;;;5087731;28;20069;-58
2023/10/27 05:41:22;;;;;;;19.48;3.90;;;14.40;99.90;;;;;;5087744;28;20084;-58
2023/10/27 05:43:50;;;;;;;30.60;3.30;;;14.30;99.90;;;;;;5087840;28;20036;-58
2023/10/27 05:46:16;;;;;;;27.92;3.40;;;14.30;99.90;;;;;;5070045;28;20025;-58
2023/10/27 05:48:41;;;;;;;18.17;2.53;;;14.30;99.90;;;;;;5087371;28;20135;-58
2023/10/27 05:51:07;;;;;;;13.40;2.42;;;14.40;99.90;;;;;;5069082;28;20362;-58
2023/10/27 05:53:32;;;;;;;13.57;2.95;;;14.30;99.90;;;;;;5069601;28;20027;-58
2023/10/27 05:55:58;;;;;;;8.70;2.28;;;14.30;99.90;;;;;;5087404;28;20100;-59
2023/10/27 05:58:23;;;;;;;8.02;2.70;;;14.30;99.90;;;;;;5069378;28;20469;-59
2023/10/27 06:00:49;;;;;;;13.93;2.40;;;14.30;99.90;;;;;;5087197;28;20029;-58
2023/10/27 06:03:14;;;;;;;11.40;2.63;;;14.30;99.90;;;;;;5087201;28;20029;-59
2023/10/27 06:05:40;;;;;;;11.02;2.30;;;14.20;99.90;;;;;;5068381;28;20055;-58
2023/10/27 06:08:06;;;;;;;7.90;2.13;;;14.20;99.90;;;;;;5045395;28;20089;-58
2023/10/27 06:10:31;;;;;;;15.68;2.70;;;14.20;99.90;;;;;;5051402;28;20024;-58
2023/10/27 06:12:57;;;;;;;8.32;1.80;;;14.20;99.90;;;;;;5085760;28;20028;-58
2023/10/27 06:15:22;;;;;;;6.70;1.58;;;14.20;99.90;;;;;;5068123;28;20028;-58
2023/10/27 06:17:49;;;;;;;11.55;1.88;;;14.20;99.90;;;;;;5068033;28;20088;-58
2023/10/27 06:20:15;;;;;;;8.93;1.60;;;14.20;99.90;;;;;;5085911;28;20431;-58
2023/10/27 06:22:42;;;;;;;8.88;1.90;;;14.10;99.90;;;;;;5051220;28;20768;-58
2023/10/27 06:25:09;;;;;;;4.20;1.42;;;14.10;99.90;;;;;;5052025;28;20052;-58
2023/10/27 06:27:38;;;;;;;5.95;1.40;;;14.10;99.90;;;;;;5086546;28;20033;-58
2023/10/27 06:30:05;;;;;;;5.30;1.30;;;14.10;99.90;;;;;;5067681;28;20067;-58
2023/10/27 06:32:31;;;;;;;6.18;1.40;;;14.10;99.90;;;;;;5051830;28;20024;-58
2023/10/27 06:34:56;;;;;;;9.77;1.77;;;14.10;99.90;;;;;;5068045;28;20028;-59
2023/10/27 06:37:23;;;;;;;4.97;1.38;;;14.10;99.90;;;;;;5067099;28;20423;-57
2023/10/27 06:39:50;;;;;;;8.77;1.60;;;14.10;99.90;;;;;;5086484;28;20044;-59
2023/10/27 06:42:16;;;;;;;10.70;1.48;;;14.00;99.90;;;;;;5066754;28;20016;-58
2023/10/27 06:44:41;;;;;;;4.50;1.35;;;14.00;99.90;;;;;;5074338;28;20029;-58
2023/10/27 06:47:07;;;;;;;3.72;1.25;;;14.00;99.90;;;;;;5085000;28;20431;-59
2023/10/27 06:49:32;;;;;;;4.32;1.60;;;14.00;99.90;;;;;;5083139;28;20033;-58
2023/10/27 06:51:58;;;;;;;5.40;1.20;;;14.10;99.90;;;;;;5086167;28;20146;-58
2023/10/27 06:54:24;;;;;;;2.58;0.95;;;14.10;99.90;;;;;;5062537;28;20024;-58
2023/10/27 06:56:50;;;;;;;5.47;1.48;;;14.10;99.90;;;;;;5064538;28;20021;-58
2023/10/27 06:59:16;;;;;;;10.82;1.40;;;14.10;99.90;;;;;;5067133;28;20074;-58
2023/10/27 07:01:44;;;;;;;6.40;1.30;;;14.00;99.90;;;;;;5085658;28;20060;-58
2023/10/27 07:04:09;;;;;;;10.40;2.55;;;14.00;99.90;;;;;;5061345;28;20460;-58
2023/10/27 07:06:35;;;;;;;23.88;3.03;;;14.00;99.90;;;;;;5057350;28;20024;-57
2023/10/27 07:09:00;;;;;;;33.78;3.53;;;14.10;99.90;;;;;;5077665;28;20040;-58
2023/10/27 07:11:26;;;;;;;12.55;1.92;;;14.10;99.90;;;;;;5088630;28;20046;-58
2023/10/27 07:13:51;;;;;;;10.73;2.20;;;14.10;99.90;;;;;;5077031;28;20071;-58
2023/10/27 07:16:17;;;;;;;17.92;1.90;;;14.10;99.90;;;;;;5085270;28;20439;-58
2023/10/27 07:18:43;;;;;;;16.33;2.20;;;14.10;99.70;;;;;;5078449;28;20111;-58
2023/10/27 07:21:11;;;;;;;18.50;2.58;;;14.10;99.50;;;;;;5045306;28;20079;-58
2023/10/27 07:23:37;;;;;;;14.13;2.05;;;14.10;99.40;;;;;;5100512;28;20051;-58
2023/10/27 07:26:13;;;;;;;42.67;4.20;;;14.10;99.30;;;;;;5071028;28;20028;-58
2023/10/27 07:28:40;;;;;;;41.63;5.28;;;14.10;99.30;;;;;;5089345;28;20484;-58
2023/10/27 07:31:07;;;;;;;38.00;5.30;;;14.10;99.40;;;;;;5059280;28;20468;-58
2023/10/27 07:33:33;;;;;;;34.35;5.00;;;14.10;99.30;;;;;;5074417;28;20022;-57
2023/10/27 07:35:58;;;;;;;50.10;6.13;;;14.10;99.30;;;;;;5074532;28;20115;-58
2023/10/27 07:38:26;;;;;;;46.63;5.05;;;14.20;99.20;;;;;;5061440;28;20020;-58
2023/10/27 07:40:55;;;;;;;120.97;11.18;;;14.10;99.00;;;;;;5059964;28;20059;-57
2023/10/27 07:43:21;;;;;;;54.58;4.47;;;14.20;99.00;;;;;;5064251;28;20062;-58
2023/10/27 07:45:47;;;;;;;56.55;6.10;;;14.20;98.90;;;;;;5077809;28;20509;-58
2023/10/27 07:48:12;;;;;;;53.45;6.82;;;14.20;98.70;;;;;;5076694;28;20472;-58
2023/10/27 07:50:40;;;;;;;48.53;5.97;;;14.10;98.50;;;;;;5070348;28;20040;-58
2023/10/27 07:53:05;;;;;;;48.30;5.90;;;14.20;98.50;;;;;;5073062;28;20027;-57
2023/10/27 07:55:31;;;;;;;52.53;6.07;;;14.20;98.40;;;;;;5068326;28;20037;-58
2023/10/27 07:57:56;;;;;;;53.08;5.18;;;14.20;98.30;;;;;;5071214;28;20029;-58
2023/10/27 08:00:24;;;;;;;48.83;5.72;;;14.20;98.20;;;;;;5065198;28;20036;-58
2023/10/27 08:02:51;;;;;;;52.42;5.55;;;14.10;98.10;;;;;;5045427;28;20032;-58
2023/10/27 08:05:17;;;;;;;44.03;5.65;;;14.20;98.20;;;;;;5068762;28;20044;-58
2023/10/27 08:07:44;;;;;;;39.80;4.80;;;14.20;98.10;;;;;;5054507;28;20032;-57
2023/10/27 08:10:10;;;;;;;58.00;7.13;;;14.20;97.90;;;;;;5072961;28;20033;-58
2023/10/27 08:12:35;;;;;;;54.10;6.22;;;14.20;97.90;;;;;;5068628;28;20025;-58
2023/10/27 08:15:05;;;;;;;76.45;7.60;;;14.10;97.80;;;;;;5055470;28;20031;-58
2023/10/27 08:17:31;;;;;;;63.22;6.88;;;14.20;97.80;;;;;;5062765;28;20059;-58
2023/10/27 08:19:57;;;;;;;52.80;6.15;;;14.20;97.80;;;;;;5076807;28;20037;-58
2023/10/27 08:22:23;;;;;;;36.45;5.88;;;14.20;97.80;;;;;;5062198;28;20089;-58
2023/10/27 08:24:48;;;;;;;47.47;5.95;;;14.20;97.60;;;;;;5067520;28;20036;-58
2023/10/27 08:27:14;;;;;;;40.42;5.10;;;14.20;97.60;;;;;;5060239;28;20036;-58
2023/10/27 08:29:39;;;;;;;46.40;6.10;;;14.20;97.50;;;;;;5056735;28;21154;-58
2023/10/27 08:32:05;;;;;;;45.58;4.97;;;14.20;97.50;;;;;;5075209;28;20028;-58
2023/10/27 08:34:31;;;;;;;51.78;6.45;;;14.20;97.50;;;;;;5065031;28;20024;-58
2023/10/27 08:36:57;;;;;;;60.67;6.95;;;14.30;97.50;;;;;;5080602;28;20042;-58
2023/10/27 08:39:24;;;;;;;60.83;7.45;;;14.30;97.50;;;;;;5078659;28;20103;-58
2023/10/27 08:41:49;;;;;;;66.70;8.50;;;14.30;97.50;;;;;;5076981;28;20095;-57
2023/10/27 08:44:16;;;;;;;71.25;8.57;;;14.30;97.30;;;;;;5078393;28;20372;-57
2023/10/27 08:46:42;;;;;;;56.53;5.55;;;14.30;97.20;;;;;;5056836;28;20028;-57
2023/10/27 08:49:08;;;;;;;46.45;5.35;;;14.30;97.20;;;;;;5066071;28;20052;-57
2023/10/27 08:51:34;;;;;;;42.92;5.75;;;14.30;97.10;;;;;;5048288;28;20039;-58
2023/10/27 08:53:59;;;;;;;52.03;5.95;;;14.30;97.10;;;;;;5086345;28;20017;-58
2023/10/27 08:56:25;;;;;;;53.95;6.18;;;14.30;97.10;;;;;;5056198;28;20107;-58
2023/10/27 08:58:53;;;;;;;40.70;6.47;;;14.30;97.10;;;;;;5064067;28;20031;-58
2023/10/27 09:01:19;;;;;;;56.72;7.30;;;14.30;97.00;;;;;;5068036;28;20024;-57
2023/10/27 09:04:07;;;;;;;75.43;10.00;;;14.40;96.90;;;;;;5088715;28;20063;-58
2023/10/27 09:06:34;;;;;;;94.82;10.60;;;14.40;96.90;;;;;;5087201;28;20514;-58
2023/10/27 09:09:00;;;;;;;84.40;9.80;;;14.40;96.80;;;;;;5059929;28;20424;-58
2023/10/27 09:11:25;;;;;;;83.97;8.35;;;14.40;96.80;;;;;;5076900;28;20044;-58
2023/10/27 09:13:51;;;;;;;81.93;8.75;;;14.50;96.70;;;;;;5079089;28;20035;-58
2023/10/27 09:16:26;;;;;;;117.65;10.55;;;14.50;96.60;;;;;;5092677;28;20052;-57
2023/10/27 09:18:51;;;;;;;127.77;12.40;;;14.50;96.50;;;;;;5083227;28;20028;-58
2023/10/27 09:21:30;;;;;;;106.20;10.95;;;14.60;96.50;;;;;;5065109;28;20487;-57
2023/10/27 09:23:56;;;;;;;78.70;9.63;;;14.60;96.60;;;;;;5064056;28;20028;-58
2023/10/27 09:26:28;;;;;;;117.88;11.73;;;14.60;96.60;;;;;;5094576;28;20103;-57
2023/10/27 09:29:03;;;;;;;89.50;11.68;;;14.60;96.50;;;;;;5088752;28;20028;-58
2023/10/27 09:31:33;;;;;;;104.28;11.80;;;14.60;96.50;;;;;;5097075;28;20442;-58
2023/10/27 09:34:21;;;;;;;95.97;11.38;;;14.70;96.50;;;;;;5069102;28;20092;-57
2023/10/27 09:36:54;;;;;;;96.57;10.45;;;14.70;96.60;;;;;;5057092;28;20052;-58
2023/10/27 09:39:20;;;;;;;94.88;10.15;;;14.70;96.60;;;;;;5050720;28;20044;-57
2023/10/27 09:42:01;;;;;;;85.72;9.43;;;14.70;96.70;;;;;;5085117;28;20028;-57
2023/10/27 09:44:36;;;;;;;96.25;10.32;;;14.70;96.60;;;;;;5076880;28;20025;-58
2023/10/27 09:47:02;;;;;;;82.85;8.90;;;14.70;96.70;;;;;;5060514;28;20029;-57
2023/10/27 09:49:32;;;;;;;73.05;9.18;;;14.70;96.60;;;;;;5067190;28;20064;-58
2023/10/27 09:51:59;;;;;;;72.20;10.35;;;14.80;96.60;;;;;;5060646;28;20093;-57
2023/10/27 09:54:31;;;;;;;65.78;9.63;;;14.80;96.60;;;;;;5067176;28;20538;-58
2023/10/27 09:56:59;;;;;;;67.60;8.00;;;14.80;96.50;;;;;;5059292;28;20033;-57
2023/10/27 09:59:24;;;;;;;68.85;8.60;;;14.80;96.40;;;;;;5076084;28;20036;-57
2023/10/27 10:01:50;;;;;;;53.50;7.90;;;14.80;96.40;;;;;;5095523;28;20028;-57
2023/10/27 10:04:51;;;;;;;68.00;8.10;;;14.80;96.50;;;;;;5066474;28;20340;-57
2023/10/27 10:07:32;;;;;;;76.70;9.02;;;14.80;96.70;;;;;;5087252;28;20024;-58
2023/10/27 10:10:17;;;;;;;99.00;9.07;;;14.80;96.50;;;;;;5061989;28;20025;-58
2023/10/27 10:13:08;;;;;;;78.85;10.60;;;14.80;96.40;;;;;;5065216;28;21372;-58
2023/10/27 10:15:35;;;;;;;74.38;8.80;;;14.80;96.40;;;;;;5080615;28;20024;-56
2023/10/27 10:18:01;;;;;;;53.17;6.95;;;14.90;96.50;;;;;;5072175;28;20028;-58
2023/10/27 10:20:44;;;;;;;60.50;7.97;;;14.90;96.40;;;;;;5069612;28;20028;-57
2023/10/27 10:23:16;;;;;;;274.27;30.13;;;14.90;96.30;;;;;;5089952;28;20162;-57
2023/10/27 10:25:53;;;;;;;117.10;14.13;;;14.90;96.30;;;;;;5065779;28;20033;-57
2023/10/27 10:28:18;;;;;;;126.05;14.65;;;15.00;96.30;;;;;;5066685;28;20028;-57
2023/10/27 10:30:47;;;;;;;251.80;24.23;;;14.90;96.20;;;;;;5080266;28;20039;-57
2023/10/27 10:33:19;;;;;;;77.20;9.88;;;14.90;96.00;;;;;;5049109;28;20027;-57
2023/10/27 10:35:48;;;;;;;360.02;30.83;;;15.00;96.00;;;;;;5054913;28;20044;-57
2023/10/27 10:38:22;;;;;;;140.55;14.68;;;15.00;95.80;;;;;;5046614;28;20020;-58
2023/10/27 10:40:59;;;;;;;111.57;12.23;;;15.00;95.70;;;;;;5065477;28;20038;-57
2023/10/27 10:43:27;;;;;;;155.00;19.25;;;15.00;95.80;;;;;;5071057;28;20021;-57
2023/10/27 10:45:53;;;;;;;90.82;10.90;;;15.10;95.80;;;;;;5053626;28;20032;-57
2023/10/27 10:48:20;;;;;;;70.95;7.95;;;15.20;95.70;;;;;;5070541;28;20536;-57
2023/10/27 10:50:49;;;;;;;103.13;12.80;;;15.10;95.50;;;;;;5065332;28;20053;-57
2023/10/27 10:53:16;;;;;;;71.45;9.27;;;15.10;95.50;;;;;;5043982;28;20086;-57
2023/10/27 10:55:44;;;;;;;100.63;11.48;;;15.20;95.60;;;;;;5064794;28;20111;-58
2023/10/27 10:58:09;;;;;;;68.50;8.48;;;15.20;95.60;;;;;;5063205;28;20017;-57
2023/10/27 11:00:35;;;;;;;85.90;10.18;;;15.30;95.50;;;;;;5072649;28;20043;-57
2023/10/27 11:03:11;;;;;;;75.00;8.07;;;15.20;95.40;;;;;;5054098;28;20077;-57
2023/10/27 11:05:39;;;;;;;;;;;15.30;95.30;;;;;;5034134;28;20504;-58
2023/10/27 11:08:05;;;;;;;62.25;6.82;;;15.20;95.20;;;;;;5058404;28;19920;-58
2023/10/27 11:10:32;;;;;;;55.05;6.43;;;15.20;95.10;;;;;;5065831;28;20029;-57
2023/10/27 11:13:04;;;;;;;32.30;4.78;;;15.20;95.10;;;;;;5043352;28;20033;-58
2023/10/27 11:15:43;;;;;;;41.17;6.32;;;15.20;95.40;;;;;;5090500;28;20493;-58
2023/10/27 11:18:13;;;;;;;53.53;6.32;;;15.20;95.30;;;;;;5070941;28;20083;-58
2023/10/27 11:20:39;;;;;;;32.38;5.32;;;15.20;95.60;;;;;;5060211;28;20095;-58
2023/10/27 11:23:11;;;;;;;37.35;4.82;;;15.20;95.70;;;;;;5050659;28;20411;-58
2023/10/27 11:25:38;;;;;;;36.28;5.43;;;15.10;95.80;;;;;;5063844;28;20029;-58
2023/10/27 11:28:23;;;;;;;34.33;4.13;;;15.10;95.90;;;;;;5068981;28;20032;-58
2023/10/27 11:31:15;;;;;;;21.88;4.28;;;15.10;96.10;;;;;;5081703;28;20177;-58
2023/10/27 11:34:00;;;;;;;66.80;8.23;;;15.10;96.20;;;;;;5084161;28;20028;-58
2023/10/27 11:36:38;;;;;;;47.92;8.35;;;15.10;96.30;;;;;;5082183;28;20033;-58
2023/10/27 11:39:13;;;;;;;61.78;7.30;;;15.10;96.50;;;;;;5061577;28;20017;-57
2023/10/27 11:41:43;;;;;;;60.25;8.27;;;15.10;96.50;;;;;;5066859;28;20543;-57
2023/10/27 11:44:08;;;;;;;32.42;5.03;;;15.20;96.60;;;;;;5063813;28;20039;-58
2023/10/27 11:46:34;;;;;;;26.77;4.57;;;15.20;96.50;;;;;;5056861;28;20092;-58
2023/10/27 11:49:00;;;;;;;41.42;4.43;;;15.20;96.40;;;;;;5050519;28;20054;-58
2023/10/27 11:51:26;;;;;;;54.50;6.90;;;15.20;96.40;;;;;;5064903;28;20583;-58
2023/10/27 11:53:51;;;;;;;79.00;10.00;;;15.20;96.20;;;;;;5092758;28;20039;-58
2023/10/27 11:56:17;;;;;;;70.63;8.90;;;15.20;96.20;;;;;;5070867;28;20134;-57
2023/10/27 11:58:43;;;;;;;76.38;9.63;;;15.20;96.30;;;;;;5067523;28;20024;-58
2023/10/27 12:01:09;;;;;;;74.15;9.57;;;15.20;96.20;;;;;;5072310;28;20085;-57
2023/10/27 12:03:34;;;;;;;62.33;7.88;;;15.20;96.10;;;;;;5056004;28;20119;-58
2023/10/27 12:06:00;;;;;;;71.47;8.00;;;15.30;96.10;;;;;;5090800;28;20444;-58
2023/10/27 12:08:25;;;;;;;52.03;5.88;;;15.30;96.10;;;;;;5095116;28;20047;-58
2023/10/27 12:10:54;;;;;;;63.17;7.15;;;15.30;96.00;;;;;;5069391;28;20043;-58
2023/10/27 12:13:20;;;;;;;68.57;8.43;;;15.30;95.90;;;;;;5055898;28;20088;-57
2023/10/27 12:15:47;;;;;;;56.85;8.73;;;15.30;96.00;;;;;;5064590;28;20046;-57
2023/10/27 12:18:16;;;;;;;77.30;8.57;;;15.30;96.20;;;;;;5080103;28;20032;-58
2023/10/27 12:20:42;;;;;;;61.42;7.28;;;15.30;96.30;;;;;;5062366;28;20059;-57
2023/10/27 12:23:08;;;;;;;52.17;7.40;;;15.30;96.10;;;;;;5052378;28;20033;-58
2023/10/27 12:25:37;;;;;;;46.88;6.90;;;15.30;96.10;;;;;;5048678;28;20163;-58
2023/10/27 12:28:03;;;;;;;43.47;7.07;;;15.30;96.30;;;;;;5078659;28;20032;-58
2023/10/27 12:30:30;;;;;;;50.97;5.95;;;15.30;96.30;;;;;;5072816;28;20036;-57
2023/10/27 12:32:56;;;;;;;43.42;5.15;;;15.40;96.40;;;;;;5068435;28;20028;-59
2023/10/27 12:35:22;;;;;;;80.28;8.52;;;15.30;96.40;;;;;;5084017;28;20025;-58
2023/10/27 12:37:48;;;;;;;77.60;8.70;;;15.30;96.90;;;;;;5045579;28;20035;-58